Time;durP1;ratioP1;P1;durP2;ratioP2;P2;SDS_P1;SDS_P2;PMS_P1;PMS_P2;Temp;Humidity;BMP_temperature;BMP_pressure;BME280_temperature;BME280_humidity;BME280_pressure;Samples;Min_cycle;Max_cycle;Signal;HPM_P1;HPM_P2
2022/07/21 00:02:55;;;;;;;0.57;0.43;;;23.10;50.90;;;;;;6193223;28;20027;-69
2022/07/21 00:05:56;;;;;;;0.60;0.60;;;23.10;50.90;;;;;;6170204;28;20528;-69
2022/07/21 00:08:57;;;;;;;0.68;0.63;;;23.10;51.00;;;;;;6174827;28;20018;-69
2022/07/21 00:11:57;;;;;;;0.60;0.60;;;23.10;51.10;;;;;;6193224;28;20507;-69
2022/07/21 00:14:58;;;;;;;0.63;0.60;;;23.10;51.00;;;;;;6179324;28;20097;-69
2022/07/21 00:17:59;;;;;;;0.60;0.60;;;23.10;51.10;;;;;;6169173;28;20059;-69
2022/07/21 00:21:00;;;;;;;0.52;0.50;;;23.10;51.10;;;;;;6190766;28;20080;-69
2022/07/21 00:24:01;;;;;;;0.65;0.63;;;23.10;51.10;;;;;;6188235;28;20026;-69
2022/07/21 00:27:02;;;;;;;0.50;0.50;;;23.10;51.10;;;;;;6169316;28;20026;-69
2022/07/21 00:30:05;;;;;;;0.70;0.68;;;23.10;51.20;;;;;;6181276;28;20161;-69
2022/07/21 00:33:05;;;;;;;0.60;0.60;;;23.10;51.20;;;;;;6193100;28;20080;-69
2022/07/21 00:36:06;;;;;;;0.50;0.50;;;23.10;51.20;;;;;;6172227;28;20031;-69
2022/07/21 00:39:07;;;;;;;0.85;0.60;;;23.10;51.20;;;;;;6187914;28;20405;-69
2022/07/21 00:42:08;;;;;;;0.82;0.40;;;23.10;51.20;;;;;;6193033;28;20034;-69
2022/07/21 00:45:09;;;;;;;0.40;0.40;;;23.10;51.20;;;;;;6181469;28;20054;-69
2022/07/21 00:48:10;;;;;;;0.70;0.63;;;23.10;51.20;;;;;;6168629;28;20046;-69
2022/07/21 00:51:11;;;;;;;0.98;0.70;;;23.10;51.30;;;;;;6187982;28;20040;-69
2022/07/21 00:54:12;;;;;;;0.60;0.60;;;23.10;51.30;;;;;;6192637;28;20731;-69
2022/07/21 00:57:14;;;;;;;0.75;0.50;;;23.10;52.00;;;;;;6193029;28;20659;-69
2022/07/21 01:00:19;;;;;;;0.60;0.50;;;23.10;51.30;;;;;;6192744;28;20162;-69
2022/07/21 01:03:19;;;;;;;0.60;0.52;;;23.10;51.30;;;;;;6189223;28;20026;-69
2022/07/21 01:06:23;;;;;;;0.60;0.60;;;23.10;51.40;;;;;;6174315;28;20146;-69
2022/07/21 01:09:23;;;;;;;0.50;0.40;;;23.10;51.40;;;;;;6170722;28;20370;-69
2022/07/21 01:12:24;;;;;;;0.50;0.50;;;23.00;51.30;;;;;;6192713;28;20085;-69
2022/07/21 01:15:25;;;;;;;0.60;0.50;;;23.10;51.40;;;;;;6183225;28;20023;-69
2022/07/21 01:18:26;;;;;;;1.13;0.82;;;23.10;51.40;;;;;;6168623;28;20411;-69
2022/07/21 01:21:36;;;;;;;0.60;0.60;;;23.00;51.40;;;;;;6188371;28;20117;-68
2022/07/21 01:24:37;;;;;;;0.75;0.45;;;23.10;51.50;;;;;;6196812;28;20388;-69
2022/07/21 01:27:38;;;;;;;0.73;0.60;;;23.10;51.50;;;;;;6196988;28;20026;-69
2022/07/21 01:30:39;;;;;;;0.57;0.50;;;23.10;51.50;;;;;;6196643;28;20030;-69
2022/07/21 01:33:41;;;;;;;0.75;0.63;;;23.10;51.50;;;;;;6195392;28;20045;-69
2022/07/21 01:36:41;;;;;;;0.63;0.63;;;23.00;51.50;;;;;;6179285;28;20114;-69
2022/07/21 01:43:02;;;;;;;0.77;0.57;;;23.10;52.20;;;;;;6196407;28;20027;-69
2022/07/21 01:46:04;;;;;;;0.50;0.50;;;23.00;51.50;;;;;;6185947;28;20042;-69
2022/07/21 01:49:06;;;;;;;0.57;0.40;;;23.10;51.60;;;;;;6172390;28;20106;-69
2022/07/21 01:52:07;;;;;;;0.60;0.60;;;23.00;51.50;;;;;;6190548;28;20847;-69
2022/07/21 01:55:08;;;;;;;0.50;0.50;;;23.10;51.70;;;;;;6196172;28;20053;-69
2022/07/21 01:58:08;;;;;;;0.80;0.60;;;23.10;51.70;;;;;;6196193;28;20041;-69
2022/07/21 02:01:09;;;;;;;0.50;0.50;;;23.00;51.50;;;;;;6195773;28;20113;-69
2022/07/21 02:04:09;;;;;;;0.65;0.52;;;23.10;51.60;;;;;;6196283;28;20018;-69
2022/07/21 02:07:10;;;;;;;0.30;0.30;;;23.00;51.60;;;;;;6179059;28;20033;-69
2022/07/21 02:10:11;;;;;;;0.70;0.60;;;23.10;51.70;;;;;;6172006;28;20486;-69
2022/07/21 02:13:11;;;;;;;0.55;0.50;;;23.00;51.60;;;;;;6195827;28;20042;-69
2022/07/21 02:16:12;;;;;;;0.50;0.40;;;23.00;51.60;;;;;;6188032;28;20031;-69
2022/07/21 02:19:14;;;;;;;0.40;0.40;;;23.00;51.60;;;;;;6172907;28;20062;-69
2022/07/21 02:22:14;;;;;;;0.40;0.40;;;23.00;51.60;;;;;;6186837;28;20639;-70
2022/07/21 02:25:15;;;;;;;0.80;0.50;;;23.00;51.60;;;;;;6195861;28;20039;-69
2022/07/21 02:28:16;;;;;;;0.80;0.50;;;23.00;51.60;;;;;;6172449;28;20058;-69
2022/07/21 02:31:16;;;;;;;0.50;0.50;;;23.00;51.70;;;;;;6176976;28;20550;-69
2022/07/21 02:34:17;;;;;;;0.75;0.50;;;23.00;51.70;;;;;;6195016;28;20022;-69
2022/07/21 02:37:18;;;;;;;0.80;0.60;;;23.00;51.60;;;;;;6181476;28;20038;-70
2022/07/21 02:40:18;;;;;;;0.60;0.60;;;23.00;51.70;;;;;;6171547;28;20026;-69
2022/07/21 02:43:19;;;;;;;1.02;0.50;;;23.00;51.70;;;;;;6192430;28;20077;-69
2022/07/21 02:46:20;;;;;;;0.40;0.40;;;23.00;51.70;;;;;;6190628;28;20019;-69
2022/07/21 02:49:20;;;;;;;0.52;0.52;;;23.00;51.70;;;;;;6171158;28;20493;-68
2022/07/21 02:52:21;;;;;;;0.52;0.50;;;23.00;52.50;;;;;;6182851;28;20773;-69
2022/07/21 02:55:22;;;;;;;0.35;0.32;;;23.00;50.40;;;;;;6194955;28;20044;-69
2022/07/21 02:58:28;;;;;;;0.95;0.50;;;23.00;49.50;;;;;;6176845;28;20079;-69
2022/07/21 03:01:29;;;;;;;0.50;0.50;;;23.20;49.10;;;;;;6174524;28;20097;-69
2022/07/21 03:04:29;;;;;;;0.73;0.60;;;23.30;48.80;;;;;;6194880;28;20032;-69
2022/07/21 03:07:30;;;;;;;0.55;0.55;;;23.30;48.30;;;;;;6183108;28;20023;-69
2022/07/21 03:10:31;;;;;;;0.65;0.50;;;23.50;48.20;;;;;;6170827;28;20038;-69
2022/07/21 03:13:31;;;;;;;0.50;0.50;;;23.50;48.00;;;;;;6189019;28;20018;-69
2022/07/21 03:16:32;;;;;;;0.60;0.52;;;23.60;47.80;;;;;;6191992;28;20117;-69
2022/07/21 03:19:33;;;;;;;0.40;0.40;;;23.60;47.70;;;;;;6170151;28;20026;-69
2022/07/21 03:22:33;;;;;;;0.80;0.60;;;23.60;47.50;;;;;;6180391;28;20048;-69
2022/07/21 03:25:34;;;;;;;0.55;0.50;;;23.70;47.50;;;;;;6194390;28;20097;-69
2022/07/21 03:28:35;;;;;;;0.60;0.60;;;23.70;47.30;;;;;;6176823;28;20613;-69
2022/07/21 03:31:36;;;;;;;0.57;0.50;;;23.70;47.20;;;;;;6170402;28;20031;-69
2022/07/21 03:34:36;;;;;;;0.60;0.50;;;23.80;47.20;;;;;;6193994;28;20105;-69
2022/07/21 03:37:45;;;;;;;0.77;0.50;;;23.80;47.10;;;;;;6180933;28;20039;-69
2022/07/21 03:40:46;;;;;;;0.50;0.50;;;23.80;47.00;;;;;;6170274;28;20026;-69
2022/07/21 03:43:47;;;;;;;0.50;0.50;;;23.80;46.90;;;;;;6186189;28;20057;-69
2022/07/21 03:46:47;;;;;;;0.57;0.52;;;23.80;46.80;;;;;;6192672;28;20088;-69
2022/07/21 03:49:48;;;;;;;0.50;0.50;;;23.80;46.80;;;;;;6168446;28;20058;-69
2022/07/21 03:52:49;;;;;;;0.60;0.60;;;23.80;46.80;;;;;;6176613;28;20026;-69
2022/07/21 03:55:49;;;;;;;0.50;0.50;;;23.80;46.70;;;;;;6187709;28;20040;-69
2022/07/21 03:58:50;;;;;;;0.50;0.50;;;23.80;46.70;;;;;;6142106;29;20041;-69
2022/07/21 04:01:51;;;;;;;0.77;0.60;;;23.80;46.70;;;;;;6142269;29;20050;-69
2022/07/21 04:04:51;;;;;;;0.75;0.40;;;23.80;46.50;;;;;;6142019;29;20027;-69
2022/07/21 04:07:52;;;;;;;0.60;0.50;;;23.80;46.50;;;;;;6141917;29;20122;-69
2022/07/21 04:10:53;;;;;;;0.43;0.43;;;23.90;46.50;;;;;;6142870;29;20123;-69
2022/07/21 04:13:54;;;;;;;0.65;0.60;;;23.80;46.40;;;;;;6142315;29;20047;-69
2022/07/21 04:16:54;;;;;;;1.20;0.60;;;23.90;46.30;;;;;;6142251;29;20038;-69
2022/07/21 04:19:55;;;;;;;0.68;0.50;;;23.90;46.30;;;;;;6142048;29;20125;-69
2022/07/21 04:22:56;;;;;;;0.43;0.40;;;23.90;46.20;;;;;;6141946;29;20032;-69
2022/07/21 04:25:57;;;;;;;0.50;0.40;;;23.90;46.20;;;;;;6142134;29;20046;-69
2022/07/21 04:28:57;;;;;;;0.40;0.40;;;23.90;46.10;;;;;;6154855;28;20138;-68
2022/07/21 04:31:58;;;;;;;0.40;0.40;;;23.80;46.10;;;;;;6177689;28;20053;-69
2022/07/21 04:34:59;;;;;;;1.05;0.40;;;23.80;46.10;;;;;;6189009;28;20022;-69
2022/07/21 04:38:00;;;;;;;0.38;0.38;;;23.90;46.10;;;;;;6190555;28;20450;-69
2022/07/21 04:41:00;;;;;;;0.73;0.40;;;23.90;46.10;;;;;;6184176;28;20509;-69
2022/07/21 04:44:01;;;;;;;0.65;0.60;;;23.90;46.00;;;;;;6179652;28;20030;-69
2022/07/21 04:47:02;;;;;;;0.50;0.40;;;23.90;46.00;;;;;;6193381;28;20030;-68
2022/07/21 04:50:03;;;;;;;0.30;0.30;;;23.90;46.00;;;;;;6174856;28;20588;-69
2022/07/21 04:53:04;;;;;;;0.68;0.40;;;23.90;45.90;;;;;;6170848;28;20501;-69
2022/07/21 04:56:04;;;;;;;1.15;0.70;;;23.90;45.90;;;;;;6195272;28;20102;-69
2022/07/21 05:03:02;;;;;;;0.50;0.50;;;23.90;45.90;;;;;;6197471;28;20042;-69
2022/07/21 05:06:03;;;;;;;0.50;0.50;;;23.90;45.80;;;;;;6197711;28;20559;-69
2022/07/21 05:09:04;;;;;;;0.60;0.50;;;23.90;45.80;;;;;;6197540;28;20080;-69
2022/07/21 05:12:05;;;;;;;0.50;0.40;;;23.90;45.70;;;;;;6180410;28;20113;-69
2022/07/21 05:15:07;;;;;;;0.68;0.43;;;23.90;45.70;;;;;;6182303;28;20019;-69
2022/07/21 05:18:08;;;;;;;0.93;0.55;;;23.90;45.60;;;;;;6173741;28;20521;-69
2022/07/21 05:21:09;;;;;;;0.55;0.40;;;23.90;45.70;;;;;;6180011;28;20022;-69
2022/07/21 05:24:10;;;;;;;0.55;0.38;;;24.00;45.70;;;;;;6194177;28;20030;-69
2022/07/21 05:27:10;;;;;;;0.68;0.60;;;23.90;45.50;;;;;;6197743;28;20085;-68
2022/07/21 05:30:11;;;;;;;0.50;0.40;;;23.90;45.60;;;;;;6195489;28;20057;-69
2022/07/21 05:33:12;;;;;;;0.82;0.50;;;23.90;45.50;;;;;;6173626;28;20023;-69
2022/07/21 05:36:12;;;;;;;0.63;0.63;;;23.90;45.60;;;;;;6194405;28;20057;-69
2022/07/21 05:39:13;;;;;;;0.40;0.40;;;23.90;45.50;;;;;;6192490;28;20050;-68
2022/07/21 05:42:14;;;;;;;0.43;0.43;;;23.90;45.50;;;;;;6173495;28;20042;-69
2022/07/21 05:45:15;;;;;;;0.45;0.45;;;24.00;45.50;;;;;;6185353;28;20034;-69
2022/07/21 05:48:15;;;;;;;0.40;0.40;;;23.90;45.40;;;;;;6197275;28;20477;-69
2022/07/21 05:51:16;;;;;;;2.35;0.60;;;23.90;45.30;;;;;;6177135;28;20035;-69
2022/07/21 05:54:16;;;;;;;0.68;0.50;;;24.00;45.40;;;;;;6182040;28;20690;-69
2022/07/21 05:57:20;;;;;;;0.40;0.40;;;24.00;45.30;;;;;;6185345;28;20050;-69
2022/07/21 06:00:21;;;;;;;0.85;0.50;;;24.00;45.30;;;;;;6194842;28;20606;-69
2022/07/21 06:03:21;;;;;;;0.60;0.60;;;24.00;45.30;;;;;;6196857;28;20028;-69
2022/07/21 06:06:23;;;;;;;0.98;0.77;;;23.90;45.30;;;;;;6177651;28;20027;-69
2022/07/21 06:09:23;;;;;;;1.35;0.90;;;24.00;45.30;;;;;;6187317;28;20026;-69
2022/07/21 06:12:24;;;;;;;1.40;1.10;;;24.00;45.30;;;;;;6173553;28;20030;-69
2022/07/21 06:15:25;;;;;;;3.42;1.20;;;24.00;45.30;;;;;;6188896;28;20026;-69
2022/07/21 06:18:25;;;;;;;1.48;1.30;;;24.00;45.30;;;;;;6184322;28;20166;-69
2022/07/21 06:21:26;;;;;;;1.45;1.15;;;23.90;45.30;;;;;;6176400;28;20027;-69
2022/07/21 06:24:27;;;;;;;1.80;1.33;;;24.00;45.60;;;;;;6172604;28;20062;-69
2022/07/21 06:27:28;;;;;;;1.23;1.02;;;24.00;45.20;;;;;;6197730;28;20092;-68
2022/07/21 06:30:28;;;;;;;2.60;1.63;;;24.00;45.10;;;;;;6188540;28;20035;-69
2022/07/21 06:33:29;;;;;;;1.85;1.33;;;24.10;45.40;;;;;;6184964;28;20026;-68
2022/07/21 06:36:30;;;;;;;4.03;1.80;;;24.10;45.50;;;;;;6181369;28;20031;-68
2022/07/21 06:39:30;;;;;;;2.83;1.58;;;24.10;45.80;;;;;;6173567;28;20474;-68
2022/07/21 06:42:31;;;;;;;5.25;1.63;;;24.10;45.80;;;;;;6196152;28;20069;-69
2022/07/21 06:45:32;;;;;;;3.78;1.90;;;24.00;45.60;;;;;;6190340;28;20023;-68
2022/07/21 06:48:32;;;;;;;3.15;1.70;;;24.00;45.60;;;;;;6172685;28;20130;-68
2022/07/21 06:51:33;;;;;;;4.00;1.95;;;24.00;45.50;;;;;;6186215;28;20034;-69
2022/07/21 06:54:33;;;;;;;3.30;2.08;;;24.10;45.60;;;;;;6196569;28;20018;-68
2022/07/21 06:57:35;;;;;;;4.97;2.03;;;24.10;45.60;;;;;;6192158;28;20034;-69
2022/07/21 07:00:36;;;;;;;3.80;2.00;;;24.10;45.50;;;;;;6191321;28;20010;-69
2022/07/21 07:03:37;;;;;;;5.05;2.15;;;24.00;45.30;;;;;;6181988;28;20073;-68
2022/07/21 07:06:38;;;;;;;4.40;2.30;;;24.10;45.40;;;;;;6195978;28;20053;-68
2022/07/21 07:09:38;;;;;;;3.10;2.35;;;24.10;45.40;;;;;;6194470;28;20049;-69
2022/07/21 07:12:39;;;;;;;3.40;2.10;;;24.10;45.30;;;;;;6189870;28;20026;-68
2022/07/21 07:15:40;;;;;;;3.55;2.30;;;24.10;45.20;;;;;;6190249;28;20022;-68
2022/07/21 07:18:40;;;;;;;3.03;2.30;;;24.10;45.20;;;;;;6194257;28;20030;-68
2022/07/21 07:21:41;;;;;;;3.17;2.10;;;24.20;45.10;;;;;;6195683;28;20080;-69
2022/07/21 07:24:42;;;;;;;3.78;2.20;;;24.20;45.20;;;;;;6195022;28;20109;-69
2022/07/21 07:27:47;;;;;;;4.60;2.38;;;24.10;45.20;;;;;;6195902;28;20495;-69
2022/07/21 07:30:49;;;;;;;2.42;2.13;;;24.20;45.30;;;;;;6191414;28;20030;-68
2022/07/21 07:33:49;;;;;;;2.22;1.80;;;24.10;45.20;;;;;;6195719;28;20429;-69
2022/07/21 07:36:50;;;;;;;2.85;1.90;;;24.20;45.20;;;;;;6189995;28;20034;-69
2022/07/21 07:39:51;;;;;;;2.40;1.88;;;24.10;46.00;;;;;;6195430;28;20046;-69
2022/07/21 07:42:52;;;;;;;5.68;2.10;;;23.90;47.00;;;;;;6195394;28;20030;-69
2022/07/21 07:45:52;;;;;;;3.30;2.38;;;23.80;47.90;;;;;;6182586;28;20078;-68
2022/07/21 07:48:53;;;;;;;3.08;2.13;;;23.70;47.50;;;;;;6194827;28;20054;-68
2022/07/21 07:51:54;;;;;;;2.92;2.25;;;23.70;47.80;;;;;;6194348;28;20026;-69
2022/07/21 07:54:54;;;;;;;2.50;2.05;;;23.60;48.90;;;;;;6195345;28;20028;-68
2022/07/21 07:57:55;;;;;;;2.55;1.80;;;23.60;48.10;;;;;;6195029;28;20044;-69
2022/07/21 08:00:56;;;;;;;3.95;1.90;;;23.60;48.20;;;;;;6195649;28;20022;-69
2022/07/21 08:03:57;;;;;;;2.83;2.20;;;23.60;48.30;;;;;;6195459;28;20782;-69
2022/07/21 08:06:57;;;;;;;4.43;1.95;;;23.60;48.70;;;;;;6187769;28;20038;-68
2022/07/21 08:09:58;;;;;;;3.25;2.28;;;23.60;48.90;;;;;;6171480;28;20027;-68
2022/07/21 08:12:59;;;;;;;3.10;2.40;;;23.50;49.00;;;;;;6186083;28;20022;-69
2022/07/21 08:15:59;;;;;;;3.28;2.13;;;23.50;49.10;;;;;;6195319;28;20118;-68
2022/07/21 08:19:00;;;;;;;3.58;2.05;;;23.50;49.30;;;;;;6172933;28;20054;-69
2022/07/21 08:22:01;;;;;;;3.60;2.35;;;23.50;49.30;;;;;;6191333;28;20517;-69
2022/07/21 08:25:02;;;;;;;6.55;2.13;;;23.50;49.50;;;;;;6194923;28;20050;-69
2022/07/21 08:28:04;;;;;;;2.63;2.08;;;23.50;49.50;;;;;;6193697;28;20049;-69
2022/07/21 08:31:05;;;;;;;3.92;2.88;;;23.50;49.50;;;;;;6187307;28;20035;-69
2022/07/21 08:34:05;;;;;;;3.42;2.70;;;23.50;49.70;;;;;;6195749;28;20060;-69
2022/07/21 08:37:06;;;;;;;4.00;2.70;;;23.50;49.70;;;;;;6185776;28;20031;-69
2022/07/21 08:40:09;;;;;;;5.35;3.03;;;23.40;49.70;;;;;;6175816;28;20031;-68
2022/07/21 08:43:12;;;;;;;3.47;2.47;;;23.40;49.70;;;;;;6187997;28;20027;-68
2022/07/21 08:46:15;;;;;;;3.00;2.53;;;23.40;49.80;;;;;;6199367;28;20018;-68
2022/07/21 08:49:22;;;;;;;5.55;2.30;;;23.40;49.80;;;;;;6178978;28;20057;-68
2022/07/21 08:52:23;;;;;;;4.88;2.80;;;23.50;49.60;;;;;;6194068;28;20027;-68
2022/07/21 08:55:24;;;;;;;3.95;2.42;;;23.50;49.80;;;;;;6199243;28;20038;-69
2022/07/21 08:58:25;;;;;;;3.50;2.45;;;23.50;50.20;;;;;;6198687;28;20508;-69
2022/07/21 09:01:26;;;;;;;2.90;2.42;;;23.50;50.00;;;;;;6199235;28;20125;-68
2022/07/21 09:04:29;;;;;;;3.22;2.50;;;23.50;50.00;;;;;;6199118;28;20128;-68
2022/07/21 09:07:47;;;;;;;5.80;2.20;;;23.50;50.50;;;;;;6199047;28;20072;-68
2022/07/21 09:10:48;;;;;;;3.25;2.47;;;23.50;50.10;;;;;;6182596;28;20029;-68
2022/07/21 09:14:05;;;;;;;4.43;3.22;;;23.50;50.10;;;;;;6187844;28;20490;-68
2022/07/21 09:17:06;;;;;;;5.22;2.33;;;23.50;50.10;;;;;;6198618;28;20042;-68
2022/07/21 09:20:22;;;;;;;4.10;2.63;;;23.50;50.00;;;;;;6175668;28;20027;-68
2022/07/21 09:23:23;;;;;;;4.15;2.33;;;23.50;50.00;;;;;;6183109;28;20034;-68
2022/07/21 09:26:24;;;;;;;2.28;2.08;;;23.50;50.00;;;;;;6198277;28;20203;-68
2022/07/21 09:29:26;;;;;;;2.67;1.80;;;23.50;50.00;;;;;;6182710;28;20509;-68
2022/07/21 09:32:32;;;;;;;2.88;2.20;;;23.40;49.90;;;;;;6174003;28;20501;-69
2022/07/21 09:35:32;;;;;;;3.25;2.45;;;23.50;50.00;;;;;;6174516;28;20031;-68
2022/07/21 09:38:35;;;;;;;2.92;2.10;;;23.40;50.00;;;;;;6182174;28;20035;-68
2022/07/21 09:41:36;;;;;;;3.08;2.35;;;23.50;50.10;;;;;;6197341;28;20014;-68
2022/07/21 09:44:36;;;;;;;2.30;1.95;;;23.50;50.10;;;;;;6185191;28;20034;-69
2022/07/21 09:47:39;;;;;;;2.67;2.10;;;23.50;50.20;;;;;;6197786;28;20057;-68
2022/07/21 09:50:39;;;;;;;3.10;2.28;;;23.50;50.20;;;;;;6197675;28;20133;-69
2022/07/21 09:53:57;;;;;;;2.22;2.00;;;23.40;50.20;;;;;;6194956;28;20022;-68
2022/07/21 09:56:58;;;;;;;2.75;2.35;;;23.40;50.10;;;;;;6196104;28;20062;-68
2022/07/21 09:59:59;;;;;;;2.55;2.00;;;23.40;50.20;;;;;;6181310;28;20026;-68
2022/07/21 10:03:02;;;;;;;2.28;2.00;;;23.40;50.20;;;;;;6178249;28;20077;-69
2022/07/21 10:06:04;;;;;;;2.20;1.90;;;23.40;50.20;;;;;;6173972;28;20385;-69
2022/07/21 10:09:09;;;;;;;3.58;2.03;;;23.40;50.20;;;;;;6181493;28;20434;-69
2022/07/21 10:12:10;;;;;;;;;;;23.40;50.10;;;;;;6198022;28;20381;-69
2022/07/21 10:15:10;;;;;;;2.33;2.00;;;23.40;50.20;;;;;;6181323;28;19906;-69
2022/07/21 10:18:15;;;;;;;1.90;1.73;;;23.40;50.20;;;;;;6173249;28;20102;-68
2022/07/21 10:21:29;;;;;;;2.30;1.88;;;23.40;50.20;;;;;;6197670;28;20031;-68
2022/07/21 10:24:31;;;;;;;2.35;1.80;;;23.40;50.40;;;;;;6197317;28;20034;-69
2022/07/21 10:27:32;;;;;;;2.08;1.88;;;23.40;50.40;;;;;;6197432;28;20373;-68
2022/07/21 10:30:39;;;;;;;2.22;2.03;;;23.40;50.70;;;;;;6196873;28;20030;-69
2022/07/21 10:33:49;;;;;;;2.15;1.83;;;23.40;50.80;;;;;;6195928;28;20042;-69
2022/07/21 10:36:50;;;;;;;3.00;2.00;;;23.40;50.80;;;;;;6172880;28;20066;-68
2022/07/21 10:39:50;;;;;;;2.13;1.88;;;23.40;50.90;;;;;;6175446;28;20474;-68
2022/07/21 10:43:00;;;;;;;2.10;1.90;;;23.40;50.90;;;;;;6172764;28;20049;-69
2022/07/21 10:46:01;;;;;;;2.53;2.00;;;23.40;50.90;;;;;;6191243;28;20105;-69
2022/07/21 10:49:02;;;;;;;2.10;1.83;;;23.40;50.90;;;;;;6194269;28;20076;-69
2022/07/21 10:52:03;;;;;;;2.10;1.80;;;23.40;50.90;;;;;;6188531;28;20110;-69
2022/07/21 10:55:10;;;;;;;2.40;1.88;;;23.30;50.90;;;;;;6195797;28;20022;-68
2022/07/21 10:58:31;;;;;;;2.08;1.80;;;23.30;50.90;;;;;;6196220;28;20077;-68
2022/07/21 11:01:32;;;;;;;1.88;1.58;;;23.40;51.00;;;;;;6196638;28;20034;-68
2022/07/21 11:05:05;;;;;;;1.90;1.80;;;23.30;51.00;;;;;;6191188;28;20434;-68
2022/07/21 11:08:16;;;;;;;1.80;1.60;;;23.30;51.00;;;;;;6172405;28;20030;-68
2022/07/21 11:11:27;;;;;;;1.90;1.70;;;23.40;51.10;;;;;;6189645;28;20080;-68
2022/07/21 11:14:41;;;;;;;1.98;1.70;;;23.30;51.00;;;;;;6193559;28;20026;-68
2022/07/21 11:17:43;;;;;;;1.97;1.60;;;23.30;51.00;;;;;;6179920;28;20057;-68
2022/07/21 11:20:59;;;;;;;2.47;2.08;;;23.30;51.10;;;;;;6196549;28;20025;-68
2022/07/21 11:23:59;;;;;;;1.88;1.60;;;23.30;51.10;;;;;;6177471;28;20026;-68
2022/07/21 11:27:09;;;;;;;1.88;1.70;;;23.30;50.90;;;;;;6195978;28;20056;-69
2022/07/21 11:30:10;;;;;;;2.28;1.90;;;23.30;51.00;;;;;;6190264;28;20118;-69
2022/07/21 11:33:21;;;;;;;1.67;1.58;;;23.30;51.10;;;;;;6172178;28;20023;-69
2022/07/21 11:36:28;;;;;;;2.53;1.65;;;23.30;51.00;;;;;;6186869;28;20027;-68
2022/07/21 11:39:28;;;;;;;1.60;1.50;;;23.30;51.00;;;;;;6191373;28;20031;-69
2022/07/21 11:42:30;;;;;;;2.92;1.75;;;23.30;51.10;;;;;;6194700;28;20034;-69
2022/07/21 11:45:31;;;;;;;1.65;1.50;;;23.30;51.10;;;;;;6187969;28;20023;-69
2022/07/21 11:48:32;;;;;;;2.03;1.80;;;23.30;51.20;;;;;;6187855;28;20089;-68
2022/07/21 11:51:33;;;;;;;2.42;1.70;;;23.30;51.10;;;;;;6194741;28;20054;-69
2022/07/21 11:54:38;;;;;;;2.00;1.70;;;23.30;51.10;;;;;;6185795;28;20320;-69
2022/07/21 11:57:46;;;;;;;1.50;1.40;;;23.30;51.20;;;;;;6183928;28;20026;-68
2022/07/21 12:00:47;;;;;;;1.70;1.50;;;23.30;51.20;;;;;;6176920;28;20759;-69
2022/07/21 12:03:50;;;;;;;2.90;1.77;;;23.30;51.20;;;;;;6193181;28;20022;-69
2022/07/21 12:06:51;;;;;;;2.38;1.75;;;23.30;51.20;;;;;;6192684;28;20085;-69
2022/07/21 12:09:54;;;;;;;1.60;1.50;;;23.30;51.20;;;;;;6193090;28;20105;-69
2022/07/21 12:13:12;;;;;;;1.70;1.60;;;23.30;51.20;;;;;;6170671;28;20390;-69
2022/07/21 12:16:13;;;;;;;1.75;1.65;;;23.30;51.20;;;;;;6177937;28;20069;-69
2022/07/21 12:19:17;;;;;;;1.33;1.23;;;23.30;51.30;;;;;;6193887;28;20370;-70
2022/07/21 12:22:39;;;;;;;1.48;1.38;;;23.30;51.20;;;;;;6194185;28;20031;-69
2022/07/21 12:25:40;;;;;;;2.00;1.60;;;23.30;51.30;;;;;;6193507;28;20117;-69
2022/07/21 12:28:42;;;;;;;1.60;1.50;;;23.30;51.20;;;;;;6194049;28;20512;-69
2022/07/21 12:31:43;;;;;;;1.60;1.42;;;23.30;51.40;;;;;;6183771;28;20037;-69
2022/07/21 12:34:51;;;;;;;1.35;1.25;;;23.30;51.30;;;;;;6170035;28;20381;-69
2022/07/21 12:37:57;;;;;;;1.60;1.50;;;23.30;51.30;;;;;;6188910;28;20030;-68
2022/07/21 12:40:57;;;;;;;1.42;1.33;;;23.30;51.40;;;;;;6194250;28;20074;-68
2022/07/21 12:43:59;;;;;;;1.67;1.58;;;23.30;51.40;;;;;;6193963;28;20025;-68
2022/07/21 12:47:18;;;;;;;1.88;1.58;;;23.30;51.40;;;;;;6183524;28;20647;-68
2022/07/21 12:50:19;;;;;;;1.50;1.30;;;23.30;51.10;;;;;;6169172;28;20051;-68
2022/07/21 12:53:19;;;;;;;2.13;1.67;;;23.30;51.20;;;;;;6190247;28;20034;-68
2022/07/21 12:56:24;;;;;;;1.98;1.35;;;23.30;51.20;;;;;;6176135;28;20464;-68
2022/07/21 12:59:25;;;;;;;1.70;1.35;;;23.30;51.20;;;;;;6193538;28;20081;-69
2022/07/21 13:02:27;;;;;;;1.80;1.30;;;23.30;51.30;;;;;;6181791;28;20065;-68
2022/07/21 13:05:28;;;;;;;1.52;1.20;;;23.30;51.30;;;;;;6169799;28;20073;-68
2022/07/21 13:08:29;;;;;;;2.33;1.25;;;23.30;51.30;;;;;;6188965;28;20027;-68
2022/07/21 13:11:29;;;;;;;2.13;1.60;;;23.30;51.30;;;;;;6174934;28;20026;-68
2022/07/21 13:14:31;;;;;;;1.45;1.33;;;23.30;51.30;;;;;;6178252;28;20389;-68
2022/07/21 13:17:32;;;;;;;1.50;1.30;;;23.30;51.30;;;;;;6185642;28;20110;-68
2022/07/21 13:20:32;;;;;;;1.42;1.30;;;23.30;51.30;;;;;;6189846;28;20539;-68
2022/07/21 13:23:34;;;;;;;2.08;1.55;;;23.30;51.30;;;;;;6173072;28;20410;-68
2022/07/21 13:26:34;;;;;;;1.50;1.40;;;23.40;51.40;;;;;;6195857;28;20112;-68
2022/07/21 13:29:36;;;;;;;1.60;1.40;;;23.30;51.20;;;;;;6188335;28;20027;-68
2022/07/21 13:32:37;;;;;;;1.50;1.40;;;23.30;51.30;;;;;;6182779;28;20029;-68
2022/07/21 13:35:37;;;;;;;1.27;1.17;;;23.30;51.60;;;;;;6197513;28;20216;-68
2022/07/21 13:38:38;;;;;;;1.50;1.35;;;23.30;51.40;;;;;;6185264;28;20038;-68
2022/07/21 13:41:40;;;;;;;1.50;1.40;;;23.30;51.60;;;;;;6195430;28;20551;-68
2022/07/21 13:44:41;;;;;;;1.38;1.27;;;23.30;51.70;;;;;;6197699;28;20057;-68
2022/07/21 13:47:42;;;;;;;3.17;1.40;;;23.30;51.70;;;;;;6189672;28;20022;-68
2022/07/21 13:50:43;;;;;;;3.83;1.48;;;23.30;51.80;;;;;;6173607;28;20050;-68
2022/07/21 13:53:46;;;;;;;1.95;1.15;;;23.30;51.90;;;;;;6184339;28;20421;-68
2022/07/21 13:56:47;;;;;;;2.75;1.55;;;23.30;51.90;;;;;;6172035;28;20118;-68
2022/07/21 13:59:48;;;;;;;1.73;1.40;;;23.30;52.00;;;;;;6194697;28;20022;-68
2022/07/21 14:02:48;;;;;;;2.67;1.60;;;23.30;52.10;;;;;;6189154;28;20062;-68
2022/07/21 14:05:49;;;;;;;1.52;1.25;;;23.30;52.10;;;;;;6171839;28;20033;-68
2022/07/21 14:08:50;;;;;;;1.45;1.35;;;23.30;52.10;;;;;;6185472;28;20413;-68
2022/07/21 14:11:50;;;;;;;1.40;1.30;;;23.30;52.20;;;;;;6195659;28;20485;-66
2022/07/21 14:14:51;;;;;;;2.13;1.50;;;23.30;52.10;;;;;;6173450;28;20065;-68
2022/07/21 14:17:52;;;;;;;1.90;1.50;;;23.30;52.50;;;;;;6176636;28;20037;-69
2022/07/21 14:20:52;;;;;;;1.75;1.42;;;23.30;52.40;;;;;;6184072;28;20033;-68
2022/07/21 14:27:12;;;;;;;1.48;1.35;;;23.30;52.80;;;;;;6194573;28;20117;-69
2022/07/21 14:30:13;;;;;;;1.55;1.45;;;23.20;50.40;;;;;;6171260;28;20046;-69
2022/07/21 14:33:13;;;;;;;1.60;1.50;;;23.30;49.30;;;;;;6167399;28;20394;-69
2022/07/21 14:36:14;;;;;;;1.17;1.08;;;23.40;49.00;;;;;;6160546;28;20034;-68
2022/07/21 14:39:15;;;;;;;2.17;1.40;;;23.50;48.80;;;;;;6182249;28;20382;-68
2022/07/21 14:42:16;;;;;;;1.65;1.45;;;23.60;48.60;;;;;;6186610;28;20062;-68
2022/07/21 14:45:18;;;;;;;1.75;1.40;;;23.70;48.50;;;;;;6184802;28;20101;-69
2022/07/21 14:48:18;;;;;;;1.65;1.55;;;23.80;48.10;;;;;;6148374;28;1337383;-68
2022/07/21 14:51:19;;;;;;;4.85;1.40;;;23.80;48.00;;;;;;6189530;28;20768;-69
2022/07/21 14:54:19;;;;;;;1.27;1.13;;;23.80;49.50;;;;;;6193431;28;20149;-68
2022/07/21 14:57:20;;;;;;;4.95;1.30;;;23.60;49.40;;;;;;6202283;28;20552;-69
2022/07/21 15:00:23;;;;;;;1.35;1.25;;;23.60;49.50;;;;;;6179850;28;20033;-69
2022/07/21 15:03:24;;;;;;;1.40;1.30;;;23.50;50.50;;;;;;6174632;28;20109;-70
2022/07/21 15:06:25;;;;;;;1.45;1.33;;;23.50;50.80;;;;;;6195862;28;20019;-69
2022/07/21 15:09:26;;;;;;;1.23;1.13;;;23.50;50.90;;;;;;6184012;28;20528;-69
2022/07/21 15:12:27;;;;;;;1.75;1.33;;;23.40;51.00;;;;;;6171497;28;20027;-69
2022/07/21 15:15:27;;;;;;;1.45;1.13;;;23.40;51.20;;;;;;6178224;28;20076;-68
2022/07/21 15:18:28;;;;;;;1.30;1.20;;;23.40;51.30;;;;;;6180278;28;20042;-69
2022/07/21 15:21:29;;;;;;;1.52;1.30;;;23.40;51.00;;;;;;6187540;28;20030;-68
2022/07/21 15:24:29;;;;;;;2.50;1.20;;;23.50;51.20;;;;;;6189454;28;20076;-69
2022/07/21 15:27:30;;;;;;;1.40;1.30;;;23.40;51.20;;;;;;6166665;28;20386;-69
2022/07/21 15:30:31;;;;;;;1.30;1.20;;;23.40;51.30;;;;;;6156150;28;20069;-68
2022/07/21 15:33:32;;;;;;;1.30;1.20;;;23.40;51.40;;;;;;6160303;28;20023;-69
2022/07/21 15:36:33;;;;;;;1.40;1.30;;;23.40;51.40;;;;;;6187522;28;20042;-68
2022/07/21 15:39:34;;;;;;;3.60;1.10;;;23.40;51.40;;;;;;6194040;28;20402;-69
2022/07/21 15:42:37;;;;;;;1.23;1.00;;;23.40;52.10;;;;;;6178057;28;20030;-69
2022/07/21 15:45:37;;;;;;;3.40;1.23;;;23.40;51.40;;;;;;6194335;28;20445;-68
2022/07/21 15:48:38;;;;;;;1.70;1.27;;;23.40;51.50;;;;;;6194239;28;20050;-69
2022/07/21 15:51:39;;;;;;;1.67;1.42;;;23.50;51.60;;;;;;6170720;28;20026;-69
2022/07/21 15:54:40;;;;;;;1.30;1.20;;;23.50;51.60;;;;;;6182384;28;20441;-69
2022/07/21 15:57:41;;;;;;;1.13;0.90;;;23.50;51.70;;;;;;6193224;28;20046;-68
2022/07/21 16:00:42;;;;;;;1.27;1.13;;;23.50;51.80;;;;;;6179766;28;20023;-69